createdAt,value
2022-08-21T00:02:05.053Z,5.00
2022-08-21T00:04:32.728Z,5.00
2022-08-21T00:07:00.336Z,4.50
2022-08-21T00:09:28.626Z,5.23
2022-08-21T00:11:56.210Z,4.87
2022-08-21T00:14:23.835Z,4.53
2022-08-21T00:16:51.916Z,6.17
2022-08-21T00:19:20.280Z,4.87
2022-08-21T00:21:49.489Z,5.80
2022-08-21T00:24:23.626Z,5.30
2022-08-21T00:26:52.360Z,5.57
2022-08-21T00:29:21.082Z,4.73
2022-08-21T00:31:48.632Z,6.90
2022-08-21T00:34:16.349Z,5.17
2022-08-21T00:36:44.492Z,5.43
2022-08-21T00:39:12.448Z,6.20
2022-08-21T00:41:41.726Z,6.43
2022-08-21T00:44:16.397Z,7.73
2022-08-21T00:46:45.123Z,6.70
2022-08-21T00:49:14.372Z,7.33
2022-08-21T00:51:56.724Z,6.57
2022-08-21T00:54:30.950Z,6.50
2022-08-21T00:57:12.696Z,6.60
2022-08-21T00:59:50.797Z,6.73
2022-08-21T01:02:21.074Z,6.40
2022-08-21T01:04:49.846Z,6.17
2022-08-21T01:07:18.664Z,6.47
2022-08-21T01:09:50.897Z,7.30
2022-08-21T01:12:20.034Z,5.87
2022-08-21T01:14:48.864Z,8.07
2022-08-21T01:17:18.408Z,6.30
2022-08-21T01:19:45.960Z,6.97
2022-08-21T01:22:14.089Z,6.33
2022-08-21T01:24:42.081Z,7.57
2022-08-21T01:27:09.740Z,6.07
2022-08-21T01:30:15.827Z,6.97
2022-08-21T01:32:44.298Z,6.17
2022-08-21T01:35:14.183Z,6.67
2022-08-21T01:37:43.881Z,7.17
2022-08-21T01:40:17.758Z,7.27
2022-08-21T01:42:47.550Z,7.33
2022-08-21T01:45:17.163Z,7.90
2022-08-21T01:47:46.998Z,9.70
2022-08-21T01:50:21.537Z,7.53
2022-08-21T01:52:50.901Z,6.70
2022-08-21T01:55:20.699Z,7.67
2022-08-21T01:57:51.357Z,7.20
2022-08-21T02:00:23.914Z,8.97
2022-08-21T02:02:52.926Z,6.90
2022-08-21T02:05:21.647Z,7.40
2022-08-21T02:07:56.562Z,7.30
2022-08-21T02:10:32.480Z,6.87
2022-08-21T02:13:02.504Z,7.20
2022-08-21T02:15:32.380Z,7.33
2022-08-21T02:18:07.324Z,7.60
2022-08-21T02:20:46.888Z,7.17
2022-08-21T02:23:16.567Z,8.13
2022-08-21T02:25:48.047Z,7.50
2022-08-21T02:28:17.024Z,8.67
2022-08-21T02:30:49.552Z,8.20
2022-08-21T02:33:19.132Z,7.57
2022-08-21T02:35:49.680Z,6.73
2022-08-21T02:38:29.101Z,7.40
2022-08-21T02:40:58.828Z,8.80
2022-08-21T02:43:29.597Z,8.50
2022-08-21T02:45:59.845Z,7.67
2022-08-21T02:48:33.207Z,7.10
2022-08-21T02:51:19.431Z,8.27
2022-08-21T02:53:50.207Z,7.80
2022-08-21T02:56:23.140Z,7.77
2022-08-21T02:58:54.631Z,7.87
2022-08-21T03:01:22.925Z,8.03
2022-08-21T03:03:54.678Z,7.40
2022-08-21T03:06:25.638Z,6.93
2022-08-21T03:08:53.279Z,8.27
2022-08-21T03:11:21.890Z,7.40
2022-08-21T03:13:49.735Z,7.17
2022-08-21T03:16:17.342Z,6.97
2022-08-21T03:18:44.812Z,7.20
2022-08-21T03:21:14.213Z,6.63
2022-08-21T03:23:43.084Z,6.70
2022-08-21T03:26:12.580Z,6.77
2022-08-21T03:28:41.462Z,6.97
2022-08-21T03:31:09.814Z,6.73
2022-08-21T03:33:37.351Z,7.60
2022-08-21T03:36:11.090Z,6.93
2022-08-21T03:38:40.659Z,6.53
2022-08-21T03:41:09.923Z,7.50
2022-08-21T03:43:39.610Z,7.60
2022-08-21T03:46:08.715Z,6.70
2022-08-21T03:48:40.029Z,7.23
2022-08-21T03:51:08.726Z,6.20
2022-08-21T03:53:37.526Z,7.03
2022-08-21T03:56:07.004Z,7.07
2022-08-21T03:58:34.907Z,7.70
2022-08-21T04:01:07.214Z,7.30
2022-08-21T04:03:38.804Z,7.60
2022-08-21T04:06:08.473Z,8.13
2022-08-21T04:08:36.659Z,7.70
2022-08-21T04:11:06.603Z,7.43
2022-08-21T04:13:34.304Z,7.30
2022-08-21T04:16:01.804Z,7.60
2022-08-21T04:18:29.516Z,8.00
2022-08-21T04:21:00.891Z,7.60
2022-08-21T04:23:30.528Z,8.00
2022-08-21T04:25:59.278Z,8.47
2022-08-21T04:28:30.367Z,8.50
2022-08-21T04:30:59.638Z,8.00
2022-08-21T04:33:27.593Z,8.00
2022-08-21T04:35:55.373Z,8.00
2022-08-21T04:38:23.527Z,9.23
2022-08-21T04:40:53.882Z,9.73
2022-08-21T04:43:24.335Z,13.00
2022-08-21T04:45:54.004Z,13.20
2022-08-21T04:48:25.252Z,13.27
2022-08-21T04:51:23.905Z,13.57
2022-08-21T04:54:07.672Z,14.40
2022-08-21T04:56:50.890Z,14.90
2022-08-21T04:59:32.735Z,14.03
2022-08-21T05:02:04.106Z,16.47
2022-08-21T05:04:37.918Z,17.03
2022-08-21T05:07:16.328Z,16.60
2022-08-21T05:10:08.833Z,13.70
2022-08-21T05:12:36.986Z,13.00
2022-08-21T05:15:06.106Z,14.00
2022-08-21T05:17:33.760Z,12.10
2022-08-21T05:20:01.288Z,14.63
2022-08-21T05:22:28.785Z,12.83
2022-08-21T05:24:56.397Z,13.53
2022-08-21T05:27:23.919Z,14.27
2022-08-21T05:29:55.308Z,13.67
2022-08-21T05:32:25.536Z,14.63
2022-08-21T05:34:53.112Z,13.30
2022-08-21T05:37:21.289Z,14.57
2022-08-21T05:40:05.272Z,14.33
2022-08-21T05:42:36.223Z,14.63
2022-08-21T05:45:04.041Z,13.60
2022-08-21T05:47:31.558Z,14.53
2022-08-21T05:49:59.364Z,12.77
2022-08-21T05:52:27.593Z,11.27
2022-08-21T05:54:55.128Z,14.33
2022-08-21T05:57:24.340Z,10.50
2022-08-21T05:59:51.899Z,9.27
2022-08-21T06:02:22.520Z,8.73
2022-08-21T06:04:50.154Z,9.83
2022-08-21T06:07:17.697Z,9.90
2022-08-21T06:09:45.193Z,8.53
2022-08-21T06:12:14.025Z,8.00
2022-08-21T06:14:43.229Z,7.70
2022-08-21T06:17:16.013Z,9.00
2022-08-21T06:19:43.525Z,8.00
2022-08-21T06:22:13.600Z,8.10
2022-08-21T06:24:41.157Z,8.30
2022-08-21T06:27:10.103Z,6.97
2022-08-21T06:29:44.553Z,7.63
2022-08-21T06:32:16.017Z,8.00
2022-08-21T06:34:43.872Z,7.83
2022-08-21T06:37:11.337Z,9.13
2022-08-21T06:39:43.274Z,7.83
2022-08-21T06:42:18.372Z,7.77
2022-08-21T06:44:46.325Z,8.30
2022-08-21T06:47:13.874Z,7.50
2022-08-21T06:49:42.312Z,7.93
2022-08-21T06:52:14.931Z,7.17
2022-08-21T06:54:42.883Z,8.57
2022-08-21T06:57:10.388Z,7.97
2022-08-21T06:59:38.733Z,7.10
2022-08-21T07:02:06.283Z,7.10
2022-08-21T07:04:33.837Z,6.50
2022-08-21T07:07:01.305Z,7.43
2022-08-21T07:09:30.011Z,7.13
2022-08-21T07:12:00.830Z,7.23
2022-08-21T07:14:29.133Z,7.57
2022-08-21T07:16:56.653Z,6.70
2022-08-21T07:19:24.498Z,6.23
2022-08-21T07:22:01.927Z,7.53
2022-08-21T07:24:30.348Z,6.10
2022-08-21T07:27:00.910Z,6.67
2022-08-21T07:29:28.534Z,6.50
2022-08-21T07:31:55.970Z,4.87
2022-08-21T07:34:23.519Z,5.87
2022-08-21T07:36:50.970Z,5.33
2022-08-21T07:39:18.409Z,5.60
2022-08-21T07:41:45.934Z,4.57
2022-08-21T07:44:13.511Z,4.60
2022-08-21T07:46:41.088Z,5.30
2022-08-21T07:49:08.605Z,4.50
2022-08-21T07:51:37.044Z,4.53
2022-08-21T07:54:04.720Z,4.13
2022-08-21T07:56:33.644Z,4.22
2022-08-21T07:59:03.762Z,5.10
2022-08-21T08:01:31.786Z,4.30
2022-08-21T08:03:59.495Z,4.53
2022-08-21T08:06:27.434Z,3.40
2022-08-21T08:08:54.937Z,3.57
2022-08-21T08:11:23.897Z,3.27
2022-08-21T08:13:53.490Z,3.03
2022-08-21T08:16:21.264Z,3.47
2022-08-21T08:18:49.596Z,3.67
2022-08-21T08:21:18.992Z,3.67
2022-08-21T08:23:46.498Z,4.40
2022-08-21T08:26:17.328Z,2.80
2022-08-21T08:28:44.971Z,2.80
2022-08-21T08:31:12.666Z,3.20
2022-08-21T08:33:40.493Z,3.70
2022-08-21T08:36:20.135Z,3.30
2022-08-21T08:38:49.273Z,2.90
2022-08-21T08:41:23.956Z,2.67
2022-08-21T08:44:08.356Z,2.33
2022-08-21T08:46:53.661Z,2.63
2022-08-21T08:49:43.842Z,2.00
2022-08-21T08:52:34.392Z,2.03
2022-08-21T08:55:41.212Z,2.30
2022-08-21T08:58:34.251Z,1.90
2022-08-21T09:01:08.259Z,2.30
2022-08-21T09:03:41.165Z,1.50
2022-08-21T09:06:40.108Z,1.60
2022-08-21T09:10:07.137Z,2.13
2022-08-21T09:13:50.463Z,2.10
2022-08-21T09:16:52.631Z,2.03
2022-08-21T09:20:17.326Z,1.40
2022-08-21T09:23:44.652Z,1.73
2022-08-21T09:26:31.755Z,1.70
2022-08-21T09:29:04.476Z,1.90
2022-08-21T09:31:40.993Z,1.60
2022-08-21T09:34:14.809Z,1.60
2022-08-21T09:36:51.769Z,1.53
2022-08-21T09:39:43.570Z,1.53
2022-08-21T09:42:33.214Z,2.50
2022-08-21T09:45:20.074Z,1.83
2022-08-21T09:47:47.580Z,1.70
2022-08-21T09:50:30.223Z,1.40
2022-08-21T09:53:02.190Z,1.47
2022-08-21T09:56:09.417Z,1.57
2022-08-21T09:58:42.964Z,1.30
2022-08-21T10:01:20.310Z,1.77
2022-08-21T10:04:04.871Z,1.60
2022-08-21T10:06:32.527Z,1.50
2022-08-21T10:09:21.835Z,1.73
2022-08-21T10:12:17.172Z,2.30
2022-08-21T10:15:29.093Z,1.80
2022-08-21T10:18:49.812Z,1.70
2022-08-21T10:22:07.883Z,1.60
2022-08-21T10:25:10.859Z,1.60
2022-08-21T10:28:27.036Z,1.70
2022-08-21T10:32:04.374Z,1.60
2022-08-21T10:35:18.640Z,1.93
2022-08-21T10:38:39.338Z,1.40
2022-08-21T10:41:35.019Z,1.83
2022-08-21T10:44:55.816Z,1.63
2022-08-21T10:47:43.995Z,1.30
2022-08-21T10:50:55.455Z,1.43
2022-08-21T10:54:19.110Z,1.20
2022-08-21T10:57:05.434Z,1.60
2022-08-21T11:00:12.453Z,1.53
2022-08-21T11:03:11.726Z,1.50
2022-08-21T11:06:18.659Z,1.40
2022-08-21T11:09:00.726Z,1.40
2022-08-21T11:11:41.102Z,1.63
2022-08-21T11:15:06.954Z,1.60
2022-08-21T11:18:27.896Z,1.83
2022-08-21T11:21:52.349Z,2.00
2022-08-21T11:25:18.502Z,1.37
2022-08-21T11:28:19.254Z,1.90
2022-08-21T11:31:19.667Z,1.80
2022-08-21T11:34:41.539Z,1.63
2022-08-21T11:37:59.441Z,1.93
2022-08-21T11:41:19.834Z,1.80
2022-08-21T11:44:17.078Z,1.97
2022-08-21T11:47:16.485Z,2.43
2022-08-21T11:50:35.290Z,1.70
2022-08-21T11:53:34.485Z,1.70
2022-08-21T11:56:34.376Z,1.70
2022-08-21T11:59:17.773Z,1.50
2022-08-21T12:01:51.861Z,1.97
2022-08-21T12:04:32.597Z,2.20
2022-08-21T12:07:41.430Z,1.40
2022-08-21T12:10:22.100Z,1.53
2022-08-21T12:12:50.212Z,1.30
2022-08-21T12:15:28.793Z,1.47
2022-08-21T12:18:29.817Z,1.80
2022-08-21T12:21:28.635Z,2.10
2022-08-21T12:24:19.574Z,2.83
2022-08-21T12:27:02.240Z,2.03
2022-08-21T12:29:38.396Z,2.10
2022-08-21T12:32:11.924Z,1.67
2022-08-21T12:35:24.636Z,1.47
2022-08-21T12:38:28.519Z,1.77
2022-08-21T12:41:08.010Z,1.53
2022-08-21T12:43:55.944Z,1.93
2022-08-21T12:46:47.422Z,1.50
2022-08-21T12:49:37.238Z,1.60
2022-08-21T12:52:38.931Z,1.67
2022-08-21T12:55:16.838Z,1.40
2022-08-21T12:57:44.572Z,1.80
2022-08-21T13:00:21.446Z,1.70
2022-08-21T13:02:52.841Z,1.63
2022-08-21T13:05:37.254Z,1.30
2022-08-21T13:08:14.783Z,1.57
2022-08-21T13:10:45.465Z,1.30
2022-08-21T13:13:28.573Z,1.60
2022-08-21T13:16:08.643Z,1.47
2022-08-21T13:19:07.722Z,1.57
2022-08-21T13:21:44.037Z,1.77
2022-08-21T13:24:43.921Z,1.50
2022-08-21T13:27:29.760Z,1.50
2022-08-21T13:30:23.401Z,1.23
2022-08-21T13:33:10.986Z,1.73
2022-08-21T13:36:10.241Z,1.83
2022-08-21T13:38:42.849Z,1.67
2022-08-21T13:41:22.487Z,1.70
2022-08-21T13:44:20.648Z,4.50
2022-08-21T13:46:51.700Z,1.73
2022-08-21T13:49:31.377Z,1.43
2022-08-21T13:51:59.611Z,1.60
2022-08-21T13:54:41.617Z,2.00
2022-08-21T13:57:36.338Z,1.60
2022-08-21T14:00:31.385Z,1.70
2022-08-21T14:03:11.637Z,1.60
2022-08-21T14:05:47.360Z,1.90
2022-08-21T14:08:38.121Z,1.50
2022-08-21T14:11:13.626Z,1.80
2022-08-21T14:14:04.888Z,2.20
2022-08-21T14:17:02.403Z,1.60
2022-08-21T14:19:49.970Z,1.47
2022-08-21T14:22:35.819Z,1.60
2022-08-21T14:25:43.746Z,1.67
2022-08-21T14:28:33.306Z,1.40
2022-08-21T14:31:23.112Z,1.47
2022-08-21T14:33:50.823Z,1.30
2022-08-21T14:36:18.310Z,1.60
2022-08-21T14:38:45.806Z,1.67
2022-08-21T14:41:24.835Z,1.80
2022-08-21T14:44:05.749Z,1.33
2022-08-21T14:46:51.681Z,1.70
2022-08-21T14:49:29.783Z,1.67
2022-08-21T14:51:59.401Z,2.00
2022-08-21T14:54:32.581Z,1.33
2022-08-21T14:57:15.917Z,1.40
2022-08-21T14:59:44.109Z,1.30
2022-08-21T15:02:12.321Z,1.50
2022-08-21T15:04:40.010Z,1.30
2022-08-21T15:07:07.678Z,1.60
2022-08-21T15:09:35.896Z,1.43
2022-08-21T15:12:07.017Z,1.20
2022-08-21T15:14:41.433Z,1.43
2022-08-21T15:17:11.850Z,1.43
2022-08-21T15:19:40.582Z,1.67
2022-08-21T15:22:15.534Z,1.40
2022-08-21T15:24:46.910Z,1.87
2022-08-21T15:27:18.045Z,1.63
2022-08-21T15:29:45.658Z,1.50
2022-08-21T15:32:40.411Z,1.13
2022-08-21T15:35:09.773Z,1.53
2022-08-21T15:37:37.347Z,1.10
2022-08-21T15:40:08.238Z,1.17
2022-08-21T15:42:36.710Z,1.67
2022-08-21T15:45:06.912Z,1.60
2022-08-21T15:47:39.421Z,1.53
2022-08-21T15:50:12.058Z,1.60
2022-08-21T15:52:40.609Z,1.40
2022-08-21T15:55:10.873Z,1.53
2022-08-21T15:57:58.166Z,1.83
2022-08-21T16:00:29.018Z,1.63
2022-08-21T16:03:01.111Z,6.83
2022-08-21T16:05:29.053Z,1.70
2022-08-21T16:07:56.710Z,1.70
2022-08-21T16:10:28.507Z,1.63
2022-08-21T16:13:23.363Z,1.30
2022-08-21T16:15:51.803Z,2.13
2022-08-21T16:18:23.291Z,1.63
2022-08-21T16:20:51.581Z,1.73
2022-08-21T16:23:19.933Z,3.07
2022-08-21T16:25:49.198Z,3.80
2022-08-21T16:28:21.919Z,14.10
2022-08-21T16:30:52.598Z,6.20
2022-08-21T16:33:50.782Z,1.63
2022-08-21T16:36:22.556Z,9.60
2022-08-21T16:38:50.161Z,7.40
2022-08-21T16:41:23.023Z,10.43
2022-08-21T16:43:52.594Z,4.40
2022-08-21T16:46:22.639Z,11.37
2022-08-21T16:48:50.344Z,1.60
2022-08-21T16:51:19.452Z,1.57
2022-08-21T16:53:47.131Z,1.80
2022-08-21T16:56:17.966Z,1.50
2022-08-21T16:58:52.328Z,1.50
2022-08-21T17:01:33.431Z,1.40
2022-08-21T17:04:01.832Z,1.83
2022-08-21T17:06:31.232Z,1.77
2022-08-21T17:09:01.466Z,1.40
2022-08-21T17:11:43.902Z,1.77
2022-08-21T17:14:24.769Z,1.20
2022-08-21T17:16:56.924Z,1.50
2022-08-21T17:19:24.655Z,1.23
2022-08-21T17:21:52.347Z,1.37
2022-08-21T17:24:20.801Z,2.20
2022-08-21T17:26:49.984Z,1.40
2022-08-21T17:29:26.137Z,1.57
2022-08-21T17:31:54.264Z,1.20
2022-08-21T17:34:23.128Z,2.23
2022-08-21T17:36:56.477Z,1.60
2022-08-21T17:39:26.714Z,1.87
2022-08-21T17:41:59.040Z,1.80
2022-08-21T17:44:26.867Z,1.53
2022-08-21T17:46:54.620Z,1.70
2022-08-21T17:49:22.252Z,1.50
2022-08-21T17:51:49.957Z,1.60
2022-08-21T17:54:17.840Z,1.77
2022-08-21T17:56:45.913Z,1.93
2022-08-21T17:59:15.455Z,2.00
2022-08-21T18:01:47.535Z,2.27
2022-08-21T18:04:17.367Z,2.53
2022-08-21T18:06:46.316Z,2.13
2022-08-21T18:09:14.471Z,2.17
2022-08-21T18:11:44.528Z,2.03
2022-08-21T18:14:13.718Z,2.30
2022-08-21T18:16:42.698Z,2.30
2022-08-21T18:19:16.087Z,2.40
2022-08-21T18:21:44.595Z,2.33
2022-08-21T18:24:12.091Z,2.70
2022-08-21T18:26:42.951Z,2.10
2022-08-21T18:29:18.532Z,2.47
2022-08-21T18:31:49.079Z,2.20
2022-08-21T18:34:41.591Z,2.90
2022-08-21T18:37:10.009Z,2.13
2022-08-21T18:39:38.192Z,2.83
2022-08-21T18:42:14.750Z,2.47
2022-08-21T18:44:50.807Z,2.70
2022-08-21T18:47:33.766Z,2.50
2022-08-21T18:50:01.539Z,3.00
2022-08-21T18:52:29.189Z,3.23
2022-08-21T18:54:56.792Z,2.27
2022-08-21T18:57:30.885Z,2.70
2022-08-21T18:59:58.914Z,3.50
2022-08-21T19:02:26.817Z,3.10
2022-08-21T19:04:54.413Z,3.10
2022-08-21T19:07:22.052Z,2.37
2022-08-21T19:10:21.023Z,2.40
2022-08-21T19:12:41.640Z,2.60
2022-08-21T19:15:20.321Z,2.37
2022-08-21T19:17:52.854Z,3.07
2022-08-21T19:20:34.576Z,2.23
2022-08-21T19:23:06.761Z,2.33
2022-08-21T19:25:39.700Z,2.60
2022-08-21T19:28:26.573Z,2.93
2022-08-21T19:31:32.479Z,2.77
2022-08-21T19:34:23.897Z,2.23
2022-08-21T19:36:51.953Z,2.80
2022-08-21T19:39:19.860Z,2.30
2022-08-21T19:41:56.547Z,2.83
2022-08-21T19:44:31.070Z,2.60
2022-08-21T19:47:05.482Z,2.30
2022-08-21T19:49:36.417Z,3.30
2022-08-21T19:52:12.924Z,3.00
2022-08-21T19:57:29.009Z,2.43
2022-08-21T19:59:56.831Z,2.43
2022-08-21T20:02:24.347Z,3.03
2022-08-21T20:04:53.592Z,2.10
2022-08-21T20:07:26.543Z,2.90
2022-08-21T20:09:56.945Z,2.33
2022-08-21T20:12:25.448Z,2.27
2022-08-21T20:14:54.003Z,2.17
2022-08-21T20:17:22.264Z,2.60
2022-08-21T20:19:54.362Z,2.27
2022-08-21T20:22:23.968Z,3.40
2022-08-21T20:24:52.055Z,2.70
2022-08-21T20:27:28.319Z,2.30
2022-08-21T20:29:56.706Z,3.27
2022-08-21T20:32:26.939Z,3.33
2022-08-21T20:34:55.072Z,2.80
2022-08-21T20:37:36.233Z,3.00
2022-08-21T20:40:13.946Z,2.83
2022-08-21T20:42:50.082Z,2.90
2022-08-21T20:45:32.088Z,2.83
2022-08-21T20:48:24.896Z,2.77
2022-08-21T20:51:21.289Z,2.90
2022-08-21T20:54:41.516Z,2.53
2022-08-21T20:58:08.420Z,3.00
2022-08-21T21:00:43.782Z,2.87
2022-08-21T21:03:42.999Z,3.00
2022-08-21T21:06:25.666Z,3.17
2022-08-21T21:09:27.068Z,3.40
2022-08-21T21:12:09.547Z,3.23
2022-08-21T21:14:55.746Z,3.93
2022-08-21T21:21:29.817Z,3.40
2022-08-21T21:24:19.673Z,3.40
2022-08-21T21:27:11.761Z,3.10
2022-08-21T21:30:04.811Z,3.20
2022-08-21T21:32:32.949Z,3.07
2022-08-21T21:35:07.489Z,3.50
2022-08-21T21:38:51.518Z,3.57
2022-08-21T21:41:55.658Z,3.43
2022-08-21T21:45:02.483Z,3.33
2022-08-21T21:48:15.900Z,2.97
2022-08-21T21:51:00.791Z,3.50
2022-08-21T21:54:09.430Z,3.33
2022-08-21T21:57:24.953Z,3.47
2022-08-21T22:00:20.221Z,2.97
2022-08-21T22:03:29.242Z,3.37
2022-08-21T22:06:12.996Z,4.47
2022-08-21T22:09:22.873Z,3.47
2022-08-21T22:13:09.730Z,3.07
2022-08-21T22:15:38.791Z,2.73
2022-08-21T22:18:21.466Z,3.50
2022-08-21T22:21:14.614Z,3.27
2022-08-21T22:23:52.685Z,3.60
2022-08-21T22:26:36.103Z,2.97
2022-08-21T22:29:13.958Z,3.47
2022-08-21T22:31:43.871Z,3.17
2022-08-21T22:34:20.154Z,3.47
2022-08-21T22:37:10.676Z,4.30
2022-08-21T22:39:53.784Z,3.63
2022-08-21T22:42:27.556Z,3.40
2022-08-21T22:45:14.554Z,3.53
2022-08-21T22:47:48.893Z,4.60
2022-08-21T22:50:35.252Z,3.57
2022-08-21T22:53:09.912Z,3.17
2022-08-21T22:55:58.523Z,3.80
2022-08-21T22:58:38.732Z,3.60
2022-08-21T23:01:45.106Z,2.87
2022-08-21T23:04:26.036Z,3.00
2022-08-21T23:07:02.631Z,2.70
2022-08-21T23:09:53.322Z,3.23
2022-08-21T23:12:43.758Z,3.00
2022-08-21T23:15:18.363Z,3.20
2022-08-21T23:18:13.471Z,2.90
2022-08-21T23:21:31.728Z,3.37
2022-08-21T23:24:33.652Z,2.87
2022-08-21T23:28:05.833Z,2.80
2022-08-21T23:31:46.207Z,3.57
2022-08-21T23:34:50.115Z,3.10
2022-08-21T23:38:29.161Z,3.03
2022-08-21T23:41:34.409Z,3.03
2022-08-21T23:45:10.811Z,3.60
2022-08-21T23:48:47.214Z,3.50
2022-08-21T23:52:15.027Z,3.10
2022-08-21T23:55:38.301Z,3.60
2022-08-21T23:58:46.455Z,3.43
